createdAt,value
2022-09-12T00:01:34.933Z,15.83
2022-09-12T00:04:40.993Z,15.82
2022-09-12T00:07:48.931Z,15.67
2022-09-12T00:10:55.170Z,15.84
2022-09-12T00:14:02.831Z,16.09
2022-09-12T00:17:08.936Z,15.65
2022-09-12T00:20:14.871Z,15.68
2022-09-12T00:23:22.596Z,15.70
2022-09-12T00:26:28.984Z,15.81
2022-09-12T00:29:35.391Z,15.97
2022-09-12T00:32:41.703Z,16.06
2022-09-12T00:35:50.512Z,15.88
2022-09-12T00:38:58.611Z,15.96
2022-09-12T00:42:04.790Z,15.67
2022-09-12T00:45:23.666Z,15.83
2022-09-12T00:48:35.273Z,15.74
2022-09-12T00:51:44.011Z,15.54
2022-09-12T00:54:57.246Z,15.44
2022-09-12T00:58:08.222Z,15.40
2022-09-12T01:01:14.868Z,15.23
2022-09-12T01:04:23.424Z,15.34
2022-09-12T01:07:30.212Z,15.39
2022-09-12T01:10:39.947Z,15.45
2022-09-12T01:13:47.509Z,15.49
2022-09-12T01:16:53.830Z,15.32
2022-09-12T01:20:36.119Z,15.18
2022-09-12T01:24:17.527Z,15.27
2022-09-12T01:27:41.739Z,14.96
2022-09-12T01:30:54.146Z,15.03
2022-09-12T01:34:15.831Z,15.32
2022-09-12T01:37:33.432Z,15.21
2022-09-12T01:40:49.270Z,15.36
2022-09-12T01:44:06.954Z,15.22
2022-09-12T01:47:21.278Z,15.48
2022-09-12T01:50:32.994Z,15.32
2022-09-12T01:53:44.635Z,15.41
2022-09-12T01:56:54.250Z,15.33
2022-09-12T02:00:04.904Z,15.50
2022-09-12T02:03:16.814Z,15.55
2022-09-12T02:06:28.358Z,15.61
2022-09-12T02:09:39.306Z,15.61
2022-09-12T02:12:51.425Z,15.82
2022-09-12T02:16:04.941Z,15.70
2022-09-12T02:19:17.007Z,15.97
2022-09-12T02:22:26.597Z,15.70
2022-09-12T02:25:36.530Z,15.61
2022-09-12T02:28:45.754Z,15.69
2022-09-12T02:31:59.091Z,15.46
2022-09-12T02:35:12.592Z,15.78
2022-09-12T02:38:26.079Z,15.74
2022-09-12T02:41:32.237Z,15.49
2022-09-12T02:44:38.956Z,15.57
2022-09-12T02:47:49.231Z,15.65
2022-09-12T02:50:57.540Z,15.31
2022-09-12T02:54:06.562Z,15.09
2022-09-12T02:57:22.385Z,15.60
2022-09-12T03:00:31.177Z,15.07
2022-09-12T03:03:52.647Z,15.08
2022-09-12T03:07:14.264Z,15.44
2022-09-12T03:10:29.430Z,15.37
2022-09-12T03:13:45.799Z,15.08
2022-09-12T03:17:05.320Z,15.34
2022-09-12T03:20:14.968Z,15.52
2022-09-12T03:23:29.104Z,15.13
2022-09-12T03:26:42.615Z,15.20
2022-09-12T03:29:50.817Z,15.06
2022-09-12T03:32:56.687Z,14.87
2022-09-12T03:36:03.286Z,14.81
2022-09-12T03:39:10.703Z,14.72
2022-09-12T03:42:16.802Z,14.93
2022-09-12T03:45:23.100Z,15.02
2022-09-12T03:48:29.528Z,15.11
2022-09-12T03:51:36.007Z,15.05
2022-09-12T03:54:43.893Z,15.26
2022-09-12T03:57:50.358Z,15.04
2022-09-12T04:00:56.826Z,14.69
2022-09-12T04:04:03.802Z,14.83
2022-09-12T04:07:10.728Z,14.70
2022-09-12T04:10:19.014Z,14.85
2022-09-12T04:13:25.498Z,14.98
2022-09-12T04:16:32.447Z,14.59
2022-09-12T04:19:39.096Z,14.81
2022-09-12T04:22:45.556Z,14.95
2022-09-12T04:25:57.151Z,15.02
2022-09-12T04:29:03.344Z,14.80
2022-09-12T04:32:09.850Z,14.79
2022-09-12T04:35:16.143Z,15.04
2022-09-12T04:38:22.702Z,15.18
2022-09-12T04:41:32.758Z,15.59
2022-09-12T04:44:39.020Z,15.04
2022-09-12T04:47:46.592Z,15.24
2022-09-12T04:50:52.778Z,15.33
2022-09-12T04:54:00.686Z,15.89
2022-09-12T04:57:08.199Z,16.08
2022-09-12T05:00:15.292Z,16.15
2022-09-12T05:03:21.311Z,15.95
2022-09-12T05:06:29.011Z,15.95
2022-09-12T05:09:35.184Z,15.90
2022-09-12T05:12:42.781Z,15.93
2022-09-12T05:15:56.460Z,16.44
2022-09-12T05:19:02.895Z,16.18
2022-09-12T05:22:09.846Z,15.94
2022-09-12T05:25:15.872Z,16.18
2022-09-12T05:28:26.254Z,16.72
2022-09-12T05:31:32.767Z,16.46
2022-09-12T05:34:39.160Z,16.55
2022-09-12T05:37:45.451Z,16.49
2022-09-12T05:40:51.899Z,15.78
2022-09-12T05:44:01.107Z,16.46
2022-09-12T05:47:07.816Z,16.60
2022-09-12T05:50:14.026Z,16.35
2022-09-12T05:53:20.728Z,16.51
2022-09-12T05:56:28.315Z,16.46
2022-09-12T05:59:36.035Z,16.88
2022-09-12T06:02:42.733Z,17.10
2022-09-12T06:05:50.729Z,17.07
2022-09-12T06:08:59.392Z,17.34
2022-09-12T06:12:06.243Z,17.06
2022-09-12T06:15:14.503Z,17.37
2022-09-12T06:18:21.098Z,17.79
2022-09-12T06:21:28.517Z,17.58
2022-09-12T06:24:34.463Z,17.62
2022-09-12T06:27:40.835Z,18.02
2022-09-12T06:30:48.996Z,17.70
2022-09-12T06:33:56.679Z,17.93
2022-09-12T06:37:04.077Z,17.50
2022-09-12T06:40:11.248Z,17.84
2022-09-12T06:43:17.753Z,17.75
2022-09-12T06:46:25.655Z,17.38
2022-09-12T06:49:32.383Z,17.37
2022-09-12T06:52:38.326Z,17.82
2022-09-12T06:55:44.777Z,18.28
2022-09-12T06:58:53.054Z,18.10
2022-09-12T07:02:01.715Z,18.01
2022-09-12T07:05:08.852Z,18.12
2022-09-12T07:08:15.050Z,18.39
2022-09-12T07:11:23.739Z,18.67
2022-09-12T07:14:30.100Z,18.29
2022-09-12T07:17:37.854Z,18.16
2022-09-12T07:20:44.029Z,18.32
2022-09-12T07:23:51.960Z,18.79
2022-09-12T07:26:58.430Z,18.66
2022-09-12T07:30:05.539Z,18.52
2022-09-12T07:33:13.531Z,18.71
2022-09-12T07:36:22.449Z,18.97
2022-09-12T07:39:28.879Z,18.80
2022-09-12T07:42:35.947Z,18.31
2022-09-12T07:45:43.462Z,19.27
2022-09-12T07:48:55.328Z,19.07
2022-09-12T07:52:01.507Z,19.32
2022-09-12T07:55:08.559Z,19.91
2022-09-12T07:58:15.411Z,19.43
2022-09-12T08:01:23.598Z,19.09
2022-09-12T08:04:31.678Z,19.18
2022-09-12T08:07:38.393Z,20.08
2022-09-12T08:10:44.560Z,19.49
2022-09-12T08:13:55.267Z,19.90
2022-09-12T08:17:02.214Z,20.14
2022-09-12T08:20:10.541Z,19.64
2022-09-12T08:23:16.623Z,19.84
2022-09-12T08:26:23.513Z,20.38
2022-09-12T08:29:30.087Z,20.79
2022-09-12T08:32:36.308Z,20.77
2022-09-12T08:35:44.068Z,20.50
2022-09-12T08:38:53.684Z,19.76
2022-09-12T08:42:04.291Z,19.80
2022-09-12T08:45:19.083Z,19.86
2022-09-12T08:48:25.631Z,19.93
2022-09-12T08:51:36.042Z,20.22
2022-09-12T08:54:42.842Z,20.58
2022-09-12T08:57:49.257Z,20.30
2022-09-12T09:01:03.543Z,20.00
2022-09-12T09:04:34.079Z,20.88
2022-09-12T09:08:13.910Z,20.28
2022-09-12T09:11:35.744Z,20.78
2022-09-12T09:15:03.426Z,20.36
2022-09-12T09:18:17.320Z,20.14
2022-09-12T09:21:30.315Z,20.50
2022-09-12T09:24:41.151Z,20.51
2022-09-12T09:27:55.168Z,20.84
2022-09-12T09:31:01.491Z,20.65
2022-09-12T09:34:15.972Z,20.46
2022-09-12T09:37:29.032Z,20.56
2022-09-12T09:40:47.120Z,20.34
2022-09-12T09:43:53.816Z,21.18
2022-09-12T09:47:01.987Z,21.23
2022-09-12T09:50:08.887Z,20.99
2022-09-12T09:53:30.894Z,21.83
2022-09-12T09:56:40.212Z,21.54
2022-09-12T09:59:46.499Z,21.37
2022-09-12T10:03:32.749Z,21.46
2022-09-12T10:06:40.299Z,21.17
2022-09-12T10:10:07.208Z,21.15
2022-09-12T10:13:26.496Z,21.79
2022-09-12T10:16:34.825Z,21.70
2022-09-12T10:19:41.631Z,21.20
2022-09-12T10:22:49.731Z,22.09
2022-09-12T10:25:59.057Z,22.16
2022-09-12T10:29:15.274Z,21.58
2022-09-12T10:32:30.473Z,22.02
2022-09-12T10:35:47.253Z,22.33
2022-09-12T10:38:55.282Z,22.56
2022-09-12T10:42:02.246Z,21.28
2022-09-12T10:45:20.322Z,22.59
2022-09-12T10:48:31.860Z,22.04
2022-09-12T10:51:38.149Z,21.40
2022-09-12T10:54:44.867Z,21.68
2022-09-12T10:58:18.633Z,22.15
2022-09-12T11:01:39.164Z,22.49
2022-09-12T11:05:00.624Z,22.75
2022-09-12T11:08:17.897Z,22.49
2022-09-12T11:11:46.179Z,22.62
2022-09-12T11:15:04.762Z,22.35
2022-09-12T11:18:27.935Z,22.78
2022-09-12T11:21:49.667Z,22.15
2022-09-12T11:25:18.352Z,22.59
2022-09-12T11:28:32.760Z,21.41
2022-09-12T11:31:54.206Z,22.16
2022-09-12T11:35:11.906Z,22.89
2022-09-12T11:38:52.118Z,22.00
2022-09-12T11:42:04.184Z,21.98
2022-09-12T11:45:18.257Z,22.44
2022-09-12T11:48:39.429Z,22.47
2022-09-12T11:51:54.055Z,23.04
2022-09-12T11:55:05.133Z,23.22
2022-09-12T11:58:14.035Z,22.82
2022-09-12T12:01:24.901Z,22.94
2022-09-12T12:04:39.147Z,22.65
2022-09-12T12:07:54.111Z,22.49
2022-09-12T12:11:02.071Z,22.27
2022-09-12T12:14:17.184Z,22.65
2022-09-12T12:17:25.639Z,22.66
2022-09-12T12:20:32.416Z,22.84
2022-09-12T12:23:39.896Z,21.82
2022-09-12T12:26:57.504Z,22.34
2022-09-12T12:30:03.619Z,22.58
2022-09-12T12:33:55.582Z,22.67
2022-09-12T12:37:40.881Z,21.55
2022-09-12T12:40:49.611Z,22.24
2022-09-12T12:43:57.712Z,21.55
2022-09-12T12:47:18.882Z,22.18
2022-09-12T12:50:27.924Z,22.07
2022-09-12T12:53:36.100Z,22.31
2022-09-12T12:56:45.194Z,22.50
2022-09-12T12:59:54.762Z,21.52
2022-09-12T13:03:07.229Z,21.31
2022-09-12T13:06:30.462Z,21.23
2022-09-12T13:09:44.967Z,21.65
2022-09-12T13:12:53.618Z,22.57
2022-09-12T13:16:00.075Z,22.07
2022-09-12T13:19:17.447Z,21.47
2022-09-12T13:22:26.247Z,21.77
2022-09-12T13:25:34.154Z,21.97
2022-09-12T13:28:41.934Z,21.71
2022-09-12T13:31:51.346Z,20.98
2022-09-12T13:35:12.095Z,21.34
2022-09-12T13:38:31.682Z,21.39
2022-09-12T13:41:54.032Z,21.40
2022-09-12T13:45:06.069Z,22.03
2022-09-12T13:48:17.884Z,21.16
2022-09-12T13:51:27.719Z,20.94
2022-09-12T13:54:35.454Z,21.54
2022-09-12T13:57:42.467Z,21.50
2022-09-12T14:01:02.234Z,21.28
2022-09-12T14:04:34.945Z,20.71
2022-09-12T14:07:55.282Z,21.19
2022-09-12T14:11:04.410Z,21.01
2022-09-12T14:14:22.119Z,21.65
2022-09-12T14:17:36.328Z,20.96
2022-09-12T14:20:43.127Z,21.21
2022-09-12T14:23:50.447Z,20.68
2022-09-12T14:26:58.208Z,21.35
2022-09-12T14:30:09.243Z,21.04
2022-09-12T14:33:22.471Z,20.67
2022-09-12T14:36:32.706Z,21.19
2022-09-12T14:39:42.503Z,22.51
2022-09-12T14:42:50.837Z,22.95
2022-09-12T14:46:00.744Z,23.28
2022-09-12T14:49:15.505Z,19.69
2022-09-12T14:52:26.767Z,19.32
2022-09-12T14:55:35.365Z,19.46
2022-09-12T14:58:42.484Z,19.33
2022-09-12T15:01:48.786Z,19.19
2022-09-12T15:05:16.528Z,19.14
2022-09-12T15:08:22.902Z,18.87
2022-09-12T15:11:30.706Z,18.75
2022-09-12T15:14:37.251Z,18.90
2022-09-12T15:17:44.143Z,19.17
2022-09-12T15:20:54.126Z,18.87
2022-09-12T15:24:00.319Z,18.74
2022-09-12T15:27:10.841Z,18.57
2022-09-12T15:30:16.928Z,18.53
2022-09-12T15:33:25.317Z,18.43
2022-09-12T15:36:33.023Z,18.53
2022-09-12T15:39:39.131Z,18.29
2022-09-12T15:42:45.409Z,18.44
2022-09-12T15:45:52.483Z,18.46
2022-09-12T15:48:58.834Z,18.57
2022-09-12T15:52:07.332Z,18.36
2022-09-12T15:55:18.747Z,18.38
2022-09-12T15:58:24.975Z,18.27
2022-09-12T16:01:31.332Z,18.17
2022-09-12T16:04:37.749Z,18.17
2022-09-12T16:07:46.218Z,17.76
2022-09-12T16:10:55.975Z,18.11
2022-09-12T16:14:03.852Z,17.92
2022-09-12T16:17:10.465Z,17.89
2022-09-12T16:20:17.445Z,17.69
2022-09-12T16:23:25.715Z,17.76
2022-09-12T16:26:31.756Z,17.53
2022-09-12T16:29:38.277Z,17.38
2022-09-12T16:32:44.742Z,17.57
2022-09-12T16:35:54.887Z,17.43
2022-09-12T16:39:02.311Z,17.32
2022-09-12T16:42:08.660Z,17.31
2022-09-12T16:45:15.316Z,17.35
2022-09-12T16:48:21.481Z,17.25
2022-09-12T16:51:29.810Z,17.13
2022-09-12T16:54:37.468Z,17.07
2022-09-12T16:57:44.019Z,17.15
2022-09-12T17:00:50.506Z,17.05
2022-09-12T17:03:58.302Z,17.13
2022-09-12T17:07:04.946Z,17.05
2022-09-12T17:10:12.424Z,16.86
2022-09-12T17:13:18.668Z,17.07
2022-09-12T17:16:25.677Z,16.99
2022-09-12T17:19:32.535Z,17.01
2022-09-12T17:22:39.154Z,16.99
2022-09-12T17:25:49.318Z,16.85
2022-09-12T17:28:55.371Z,16.89
2022-09-12T17:32:01.890Z,16.72
2022-09-12T17:35:09.088Z,16.80
2022-09-12T17:38:19.313Z,16.71
2022-09-12T17:41:31.864Z,16.64
2022-09-12T17:44:38.298Z,16.58
2022-09-12T17:47:44.475Z,16.60
2022-09-12T17:50:50.866Z,16.47
2022-09-12T17:54:01.197Z,16.47
2022-09-12T17:57:09.184Z,16.31
2022-09-12T18:00:16.134Z,16.34
2022-09-12T18:03:23.093Z,16.35
2022-09-12T18:06:32.390Z,16.39
2022-09-12T18:09:39.088Z,16.15
2022-09-12T18:12:47.187Z,16.26
2022-09-12T18:15:53.398Z,16.00
2022-09-12T18:19:01.468Z,16.13
2022-09-12T18:22:07.868Z,15.95
2022-09-12T18:25:13.940Z,15.79
2022-09-12T18:28:21.664Z,15.88
2022-09-12T18:31:29.996Z,15.89
2022-09-12T18:34:36.608Z,15.62
2022-09-12T18:37:44.020Z,15.77
2022-09-12T18:40:50.541Z,15.69
2022-09-12T18:43:59.958Z,15.56
2022-09-12T18:47:06.668Z,15.73
2022-09-12T18:50:13.086Z,15.50
2022-09-12T18:53:19.846Z,15.53
2022-09-12T18:56:28.015Z,15.41
2022-09-12T18:59:35.833Z,15.51
2022-09-12T19:02:41.938Z,15.41
2022-09-12T19:05:48.188Z,15.22
2022-09-12T19:08:56.246Z,15.39
2022-09-12T19:12:02.713Z,15.38
2022-09-12T19:15:11.176Z,15.29
2022-09-12T19:18:17.693Z,15.30
2022-09-12T19:21:26.214Z,15.29
2022-09-12T19:24:32.337Z,15.28
2022-09-12T19:27:38.924Z,15.11
2022-09-12T19:30:49.954Z,15.09
2022-09-12T19:34:01.202Z,14.95
2022-09-12T19:37:07.499Z,14.77
2022-09-12T19:40:13.793Z,14.50
2022-09-12T19:43:20.025Z,14.50
2022-09-12T19:46:28.566Z,14.42
2022-09-12T19:49:34.498Z,14.42
2022-09-12T19:52:41.028Z,14.32
2022-09-12T19:55:47.872Z,14.26
2022-09-12T19:58:56.632Z,14.11
2022-09-12T20:02:04.540Z,14.10
2022-09-12T20:05:11.083Z,14.05
2022-09-12T20:08:17.419Z,13.84
2022-09-12T20:11:25.887Z,13.84
2022-09-12T20:14:32.210Z,14.03
2022-09-12T20:17:40.272Z,13.89
2022-09-12T20:20:46.796Z,13.95
2022-09-12T20:23:53.259Z,13.81
2022-09-12T20:26:59.544Z,13.88
2022-09-12T20:30:06.888Z,13.73
2022-09-12T20:33:14.628Z,13.90
2022-09-12T20:36:22.201Z,13.78
2022-09-12T20:39:29.259Z,13.76
2022-09-12T20:42:35.362Z,13.72
2022-09-12T20:45:42.192Z,13.80
2022-09-12T20:48:49.907Z,13.77
2022-09-12T20:51:55.860Z,13.57
2022-09-12T20:55:01.844Z,13.62
2022-09-12T20:58:08.395Z,13.42
2022-09-12T21:01:16.737Z,13.26
2022-09-12T21:04:25.427Z,13.18
2022-09-12T21:07:32.322Z,13.38
2022-09-12T21:10:38.634Z,13.29
2022-09-12T21:13:45.248Z,13.05
2022-09-12T21:16:52.159Z,12.94
2022-09-12T21:19:59.977Z,13.13
2022-09-12T21:23:06.452Z,13.03
2022-09-12T21:26:13.074Z,13.10
2022-09-12T21:29:18.912Z,12.79
2022-09-12T21:32:25.419Z,12.73
2022-09-12T21:35:35.331Z,12.41
2022-09-12T21:38:41.667Z,12.61
2022-09-12T21:41:47.828Z,12.77
2022-09-12T21:44:54.132Z,12.61
2022-09-12T21:48:00.589Z,11.57
2022-09-12T21:51:08.579Z,11.93
2022-09-12T21:54:15.188Z,11.14
2022-09-12T21:57:21.507Z,11.20
2022-09-12T22:00:27.594Z,12.02
2022-09-12T22:03:33.863Z,12.12
2022-09-12T22:06:41.354Z,12.01
2022-09-12T22:09:47.235Z,12.27
2022-09-12T22:12:53.531Z,12.11
2022-09-12T22:16:00.703Z,11.84
2022-09-12T22:19:07.099Z,12.04
2022-09-12T22:22:31.795Z,11.85
2022-09-12T22:25:38.013Z,11.94
2022-09-12T22:28:44.487Z,11.72
2022-09-12T22:31:50.880Z,11.63
2022-09-12T22:34:57.987Z,10.72
2022-09-12T22:38:05.943Z,11.29
2022-09-12T22:41:13.251Z,11.62
2022-09-12T22:44:20.990Z,11.66
2022-09-12T22:47:27.700Z,11.74
2022-09-12T22:50:33.822Z,11.53
2022-09-12T22:53:41.627Z,11.60
2022-09-12T22:56:47.780Z,11.46
2022-09-12T22:59:54.256Z,11.45
2022-09-12T23:03:01.966Z,11.45
2022-09-12T23:06:08.787Z,10.88
2022-09-12T23:09:16.366Z,10.18
2022-09-12T23:12:22.742Z,9.92
2022-09-12T23:15:29.479Z,10.10
2022-09-12T23:18:37.387Z,10.05
2022-09-12T23:21:43.640Z,10.21
2022-09-12T23:24:51.083Z,10.58
2022-09-12T23:27:56.958Z,10.28
2022-09-12T23:31:03.776Z,10.90
2022-09-12T23:34:10.910Z,10.32
2022-09-12T23:37:17.061Z,10.75
2022-09-12T23:40:24.798Z,10.89
2022-09-12T23:43:32.338Z,11.01
2022-09-12T23:46:38.675Z,10.86
2022-09-12T23:49:46.002Z,10.78
2022-09-12T23:52:52.151Z,10.42
2022-09-12T23:56:00.342Z,10.83
2022-09-12T23:59:06.704Z,10.96
